sensor_id;sensor_type;location;lat;lon;timestamp;P1;durP1;ratioP1;P2;durP2;ratioP2
5127;SDS011;2582;48.770;9.190;2023-04-06T00:01:35;10.40;;;9.13;;
5127;SDS011;2582;48.770;9.190;2023-04-06T00:04:00;10.47;;;9.47;;
5127;SDS011;2582;48.770;9.190;2023-04-06T00:06:26;9.80;;;8.80;;
5127;SDS011;2582;48.770;9.190;2023-04-06T00:08:52;8.53;;;7.67;;
5127;SDS011;2582;48.770;9.190;2023-04-06T00:11:18;9.17;;;8.37;;
5127;SDS011;2582;48.770;9.190;2023-04-06T00:13:44;9.70;;;8.80;;
5127;SDS011;2582;48.770;9.190;2023-04-06T00:16:10;9.67;;;8.67;;
5127;SDS011;2582;48.770;9.190;2023-04-06T00:18:35;10.63;;;9.47;;
5127;SDS011;2582;48.770;9.190;2023-04-06T00:21:01;9.97;;;8.20;;
5127;SDS011;2582;48.770;9.190;2023-04-06T00:23:28;11.30;;;9.47;;
5127;SDS011;2582;48.770;9.190;2023-04-06T00:25:53;10.00;;;9.07;;
5127;SDS011;2582;48.770;9.190;2023-04-06T00:28:20;9.47;;;8.57;;
5127;SDS011;2582;48.770;9.190;2023-04-06T00:30:50;10.00;;;8.23;;
5127;SDS011;2582;48.770;9.190;2023-04-06T00:33:17;9.10;;;8.20;;
5127;SDS011;2582;48.770;9.190;2023-04-06T00:35:44;10.30;;;9.30;;
5127;SDS011;2582;48.770;9.190;2023-04-06T00:38:09;10.83;;;9.73;;
5127;SDS011;2582;48.770;9.190;2023-04-06T00:40:36;12.03;;;9.57;;
5127;SDS011;2582;48.770;9.190;2023-04-06T00:43:02;9.30;;;8.40;;
5127;SDS011;2582;48.770;9.190;2023-04-06T00:45:28;11.43;;;9.27;;
5127;SDS011;2582;48.770;9.190;2023-04-06T00:47:53;9.90;;;9.00;;
5127;SDS011;2582;48.770;9.190;2023-04-06T00:50:19;11.37;;;9.60;;
5127;SDS011;2582;48.770;9.190;2023-04-06T00:52:45;9.97;;;8.97;;
5127;SDS011;2582;48.770;9.190;2023-04-06T00:55:10;9.83;;;8.47;;
5127;SDS011;2582;48.770;9.190;2023-04-06T00:57:36;10.10;;;9.00;;
5127;SDS011;2582;48.770;9.190;2023-04-06T01:00:03;10.03;;;9.07;;
5127;SDS011;2582;48.770;9.190;2023-04-06T01:02:29;11.10;;;9.47;;
5127;SDS011;2582;48.770;9.190;2023-04-06T01:04:55;10.60;;;9.50;;
5127;SDS011;2582;48.770;9.190;2023-04-06T01:07:21;11.27;;;10.07;;
5127;SDS011;2582;48.770;9.190;2023-04-06T01:09:46;9.90;;;8.90;;
5127;SDS011;2582;48.770;9.190;2023-04-06T01:12:12;10.97;;;9.17;;
5127;SDS011;2582;48.770;9.190;2023-04-06T01:14:38;13.57;;;10.40;;
5127;SDS011;2582;48.770;9.190;2023-04-06T01:17:03;10.70;;;9.60;;
5127;SDS011;2582;48.770;9.190;2023-04-06T01:19:29;10.70;;;9.70;;
5127;SDS011;2582;48.770;9.190;2023-04-06T01:21:55;12.00;;;10.80;;
5127;SDS011;2582;48.770;9.190;2023-04-06T01:24:21;10.60;;;9.60;;
5127;SDS011;2582;48.770;9.190;2023-04-06T01:26:47;11.77;;;10.60;;
5127;SDS011;2582;48.770;9.190;2023-04-06T01:29:13;11.37;;;9.80;;
5127;SDS011;2582;48.770;9.190;2023-04-06T01:31:39;12.40;;;11.10;;
5127;SDS011;2582;48.770;9.190;2023-04-06T01:34:05;11.40;;;10.27;;
5127;SDS011;2582;48.770;9.190;2023-04-06T01:36:30;11.70;;;10.50;;
5127;SDS011;2582;48.770;9.190;2023-04-06T01:38:56;13.13;;;11.80;;
5127;SDS011;2582;48.770;9.190;2023-04-06T01:41:22;15.43;;;10.40;;
5127;SDS011;2582;48.770;9.190;2023-04-06T01:43:48;11.13;;;9.93;;
5127;SDS011;2582;48.770;9.190;2023-04-06T01:46:14;12.67;;;10.17;;
5127;SDS011;2582;48.770;9.190;2023-04-06T01:48:40;13.40;;;9.90;;
5127;SDS011;2582;48.770;9.190;2023-04-06T01:51:06;11.40;;;10.30;;
5127;SDS011;2582;48.770;9.190;2023-04-06T01:53:32;11.53;;;10.33;;
5127;SDS011;2582;48.770;9.190;2023-04-06T01:55:58;10.60;;;9.60;;
5127;SDS011;2582;48.770;9.190;2023-04-06T01:58:23;10.90;;;9.80;;
5127;SDS011;2582;48.770;9.190;2023-04-06T02:00:49;11.47;;;10.37;;
5127;SDS011;2582;48.770;9.190;2023-04-06T02:03:14;12.93;;;10.50;;
5127;SDS011;2582;48.770;9.190;2023-04-06T02:05:40;14.00;;;10.70;;
5127;SDS011;2582;48.770;9.190;2023-04-06T02:08:06;11.87;;;10.60;;
5127;SDS011;2582;48.770;9.190;2023-04-06T02:10:35;12.37;;;11.07;;
5127;SDS011;2582;48.770;9.190;2023-04-06T02:13:01;11.47;;;10.27;;
5127;SDS011;2582;48.770;9.190;2023-04-06T02:15:27;13.63;;;10.37;;
5127;SDS011;2582;48.770;9.190;2023-04-06T02:17:52;11.57;;;10.43;;
5127;SDS011;2582;48.770;9.190;2023-04-06T02:20:18;13.63;;;10.07;;
5127;SDS011;2582;48.770;9.190;2023-04-06T02:22:44;11.10;;;9.97;;
5127;SDS011;2582;48.770;9.190;2023-04-06T02:25:10;11.70;;;10.03;;
5127;SDS011;2582;48.770;9.190;2023-04-06T02:27:36;16.90;;;11.90;;
5127;SDS011;2582;48.770;9.190;2023-04-06T02:30:03;11.73;;;10.57;;
5127;SDS011;2582;48.770;9.190;2023-04-06T02:32:29;11.23;;;9.93;;
5127;SDS011;2582;48.770;9.190;2023-04-06T02:34:55;15.00;;;11.90;;
5127;SDS011;2582;48.770;9.190;2023-04-06T02:37:20;12.33;;;11.13;;
5127;SDS011;2582;48.770;9.190;2023-04-06T02:39:48;16.00;;;11.63;;
5127;SDS011;2582;48.770;9.190;2023-04-06T02:42:13;13.97;;;11.40;;
5127;SDS011;2582;48.770;9.190;2023-04-06T02:44:40;11.77;;;10.57;;
5127;SDS011;2582;48.770;9.190;2023-04-06T02:47:06;11.43;;;10.23;;
5127;SDS011;2582;48.770;9.190;2023-04-06T02:49:32;10.90;;;9.87;;
5127;SDS011;2582;48.770;9.190;2023-04-06T02:51:57;12.40;;;11.10;;
5127;SDS011;2582;48.770;9.190;2023-04-06T02:54:23;15.90;;;11.83;;
5127;SDS011;2582;48.770;9.190;2023-04-06T02:56:49;10.90;;;9.90;;
5127;SDS011;2582;48.770;9.190;2023-04-06T02:59:15;11.43;;;10.37;;
5127;SDS011;2582;48.770;9.190;2023-04-06T03:01:40;13.03;;;11.70;;
5127;SDS011;2582;48.770;9.190;2023-04-06T03:04:06;11.90;;;10.70;;
5127;SDS011;2582;48.770;9.190;2023-04-06T03:06:31;15.37;;;11.30;;
5127;SDS011;2582;48.770;9.190;2023-04-06T03:08:57;11.73;;;10.53;;
5127;SDS011;2582;48.770;9.190;2023-04-06T03:11:23;13.47;;;12.07;;
5127;SDS011;2582;48.770;9.190;2023-04-06T03:13:48;12.10;;;10.70;;
5127;SDS011;2582;48.770;9.190;2023-04-06T03:16:14;14.23;;;11.43;;
5127;SDS011;2582;48.770;9.190;2023-04-06T03:18:40;13.57;;;10.60;;
5127;SDS011;2582;48.770;9.190;2023-04-06T03:21:06;12.97;;;11.43;;
5127;SDS011;2582;48.770;9.190;2023-04-06T03:23:31;12.40;;;10.70;;
5127;SDS011;2582;48.770;9.190;2023-04-06T03:25:57;12.50;;;11.30;;
5127;SDS011;2582;48.770;9.190;2023-04-06T03:28:23;14.10;;;12.00;;
5127;SDS011;2582;48.770;9.190;2023-04-06T03:30:48;13.93;;;12.43;;
5127;SDS011;2582;48.770;9.190;2023-04-06T03:33:14;11.90;;;10.70;;
5127;SDS011;2582;48.770;9.190;2023-04-06T03:35:40;13.50;;;12.10;;
5127;SDS011;2582;48.770;9.190;2023-04-06T03:38:05;22.60;;;15.23;;
5127;SDS011;2582;48.770;9.190;2023-04-06T03:40:31;13.63;;;12.23;;
5127;SDS011;2582;48.770;9.190;2023-04-06T03:42:57;13.20;;;11.20;;
5127;SDS011;2582;48.770;9.190;2023-04-06T03:45:22;12.53;;;11.20;;
5127;SDS011;2582;48.770;9.190;2023-04-06T03:47:48;15.63;;;12.30;;
5127;SDS011;2582;48.770;9.190;2023-04-06T03:50:14;13.53;;;12.23;;
5127;SDS011;2582;48.770;9.190;2023-04-06T03:52:40;11.77;;;10.53;;
5127;SDS011;2582;48.770;9.190;2023-04-06T03:55:06;11.90;;;10.50;;
5127;SDS011;2582;48.770;9.190;2023-04-06T03:57:32;11.40;;;10.20;;
5127;SDS011;2582;48.770;9.190;2023-04-06T03:59:58;12.20;;;10.90;;
5127;SDS011;2582;48.770;9.190;2023-04-06T04:02:23;13.00;;;11.53;;
5127;SDS011;2582;48.770;9.190;2023-04-06T04:04:49;13.73;;;11.50;;
5127;SDS011;2582;48.770;9.190;2023-04-06T04:07:15;13.00;;;11.07;;
5127;SDS011;2582;48.770;9.190;2023-04-06T04:09:41;11.33;;;10.20;;
5127;SDS011;2582;48.770;9.190;2023-04-06T04:12:06;12.07;;;10.10;;
5127;SDS011;2582;48.770;9.190;2023-04-06T04:14:32;11.87;;;10.73;;
5127;SDS011;2582;48.770;9.190;2023-04-06T04:16:57;14.70;;;11.87;;
5127;SDS011;2582;48.770;9.190;2023-04-06T04:19:23;13.00;;;11.60;;
5127;SDS011;2582;48.770;9.190;2023-04-06T04:21:49;15.10;;;11.90;;
5127;SDS011;2582;48.770;9.190;2023-04-06T04:24:14;12.07;;;10.77;;
5127;SDS011;2582;48.770;9.190;2023-04-06T04:26:40;12.83;;;11.53;;
5127;SDS011;2582;48.770;9.190;2023-04-06T04:29:06;12.63;;;11.30;;
5127;SDS011;2582;48.770;9.190;2023-04-06T04:31:32;14.90;;;11.50;;
5127;SDS011;2582;48.770;9.190;2023-04-06T04:33:59;12.13;;;10.90;;
5127;SDS011;2582;48.770;9.190;2023-04-06T04:36:25;14.10;;;12.53;;
5127;SDS011;2582;48.770;9.190;2023-04-06T04:38:51;15.27;;;12.50;;
5127;SDS011;2582;48.770;9.190;2023-04-06T04:41:17;13.77;;;10.87;;
5127;SDS011;2582;48.770;9.190;2023-04-06T04:43:43;13.63;;;11.40;;
5127;SDS011;2582;48.770;9.190;2023-04-06T04:46:09;13.00;;;11.70;;
5127;SDS011;2582;48.770;9.190;2023-04-06T04:48:35;15.30;;;12.40;;
5127;SDS011;2582;48.770;9.190;2023-04-06T04:51:00;17.87;;;11.67;;
5127;SDS011;2582;48.770;9.190;2023-04-06T04:53:26;12.23;;;11.03;;
5127;SDS011;2582;48.770;9.190;2023-04-06T04:55:52;15.47;;;11.13;;
5127;SDS011;2582;48.770;9.190;2023-04-06T04:58:17;13.40;;;12.00;;
5127;SDS011;2582;48.770;9.190;2023-04-06T05:00:44;14.63;;;10.90;;
5127;SDS011;2582;48.770;9.190;2023-04-06T05:03:14;13.70;;;11.90;;
5127;SDS011;2582;48.770;9.190;2023-04-06T05:05:49;13.97;;;11.70;;
5127;SDS011;2582;48.770;9.190;2023-04-06T05:08:15;12.60;;;11.30;;
5127;SDS011;2582;48.770;9.190;2023-04-06T05:10:41;18.20;;;11.90;;
5127;SDS011;2582;48.770;9.190;2023-04-06T05:13:07;13.77;;;12.37;;
5127;SDS011;2582;48.770;9.190;2023-04-06T05:15:33;13.33;;;11.93;;
5127;SDS011;2582;48.770;9.190;2023-04-06T05:17:59;12.97;;;11.67;;
5127;SDS011;2582;48.770;9.190;2023-04-06T05:20:26;14.10;;;12.70;;
5127;SDS011;2582;48.770;9.190;2023-04-06T05:22:52;14.00;;;12.50;;
5127;SDS011;2582;48.770;9.190;2023-04-06T05:25:17;14.30;;;12.20;;
5127;SDS011;2582;48.770;9.190;2023-04-06T05:27:43;12.43;;;10.47;;
5127;SDS011;2582;48.770;9.190;2023-04-06T05:30:08;13.10;;;11.80;;
5127;SDS011;2582;48.770;9.190;2023-04-06T05:32:34;10.90;;;9.80;;
5127;SDS011;2582;48.770;9.190;2023-04-06T05:35:00;13.90;;;11.63;;
5127;SDS011;2582;48.770;9.190;2023-04-06T05:37:26;12.77;;;11.33;;
5127;SDS011;2582;48.770;9.190;2023-04-06T05:39:51;14.40;;;11.70;;
5127;SDS011;2582;48.770;9.190;2023-04-06T05:42:17;12.33;;;11.17;;
5127;SDS011;2582;48.770;9.190;2023-04-06T05:44:43;14.20;;;11.77;;
5127;SDS011;2582;48.770;9.190;2023-04-06T05:47:08;14.73;;;12.07;;
5127;SDS011;2582;48.770;9.190;2023-04-06T05:49:34;13.10;;;11.80;;
5127;SDS011;2582;48.770;9.190;2023-04-06T05:52:00;15.50;;;12.03;;
5127;SDS011;2582;48.770;9.190;2023-04-06T05:54:26;10.97;;;9.87;;
5127;SDS011;2582;48.770;9.190;2023-04-06T05:56:52;13.50;;;11.20;;
5127;SDS011;2582;48.770;9.190;2023-04-06T05:59:17;14.60;;;13.10;;
5127;SDS011;2582;48.770;9.190;2023-04-06T06:01:43;14.37;;;11.67;;
5127;SDS011;2582;48.770;9.190;2023-04-06T06:04:09;16.87;;;12.80;;
5127;SDS011;2582;48.770;9.190;2023-04-06T06:06:35;12.97;;;11.60;;
5127;SDS011;2582;48.770;9.190;2023-04-06T06:09:01;16.20;;;11.97;;
5127;SDS011;2582;48.770;9.190;2023-04-06T06:11:28;13.47;;;11.97;;
5127;SDS011;2582;48.770;9.190;2023-04-06T06:13:54;13.43;;;12.00;;
5127;SDS011;2582;48.770;9.190;2023-04-06T06:16:20;13.30;;;11.70;;
5127;SDS011;2582;48.770;9.190;2023-04-06T06:18:47;15.57;;;13.30;;
5127;SDS011;2582;48.770;9.190;2023-04-06T06:21:13;14.13;;;11.53;;
5127;SDS011;2582;48.770;9.190;2023-04-06T06:23:39;17.77;;;13.30;;
5127;SDS011;2582;48.770;9.190;2023-04-06T06:26:06;13.53;;;12.07;;
5127;SDS011;2582;48.770;9.190;2023-04-06T06:28:32;15.60;;;12.03;;
5127;SDS011;2582;48.770;9.190;2023-04-06T06:30:58;13.53;;;12.23;;
5127;SDS011;2582;48.770;9.190;2023-04-06T06:33:23;15.40;;;13.70;;
5127;SDS011;2582;48.770;9.190;2023-04-06T06:35:51;13.57;;;12.17;;
5127;SDS011;2582;48.770;9.190;2023-04-06T06:38:16;16.57;;;13.00;;
5127;SDS011;2582;48.770;9.190;2023-04-06T06:40:42;14.30;;;11.83;;
5127;SDS011;2582;48.770;9.190;2023-04-06T06:43:08;13.40;;;12.00;;
5127;SDS011;2582;48.770;9.190;2023-04-06T06:45:34;13.57;;;12.23;;
5127;SDS011;2582;48.770;9.190;2023-04-06T06:48:00;15.33;;;12.20;;
5127;SDS011;2582;48.770;9.190;2023-04-06T06:50:27;16.23;;;12.03;;
5127;SDS011;2582;48.770;9.190;2023-04-06T06:52:52;16.03;;;12.97;;
5127;SDS011;2582;48.770;9.190;2023-04-06T06:55:18;16.73;;;13.23;;
5127;SDS011;2582;48.770;9.190;2023-04-06T06:57:44;15.90;;;13.93;;
5127;SDS011;2582;48.770;9.190;2023-04-06T07:00:11;14.07;;;12.13;;
5127;SDS011;2582;48.770;9.190;2023-04-06T07:02:38;16.50;;;12.10;;
5127;SDS011;2582;48.770;9.190;2023-04-06T07:05:04;15.30;;;12.90;;
5127;SDS011;2582;48.770;9.190;2023-04-06T07:07:31;16.80;;;14.57;;
5127;SDS011;2582;48.770;9.190;2023-04-06T07:09:57;15.83;;;14.23;;
5127;SDS011;2582;48.770;9.190;2023-04-06T07:12:23;18.30;;;14.30;;
5127;SDS011;2582;48.770;9.190;2023-04-06T07:14:49;16.60;;;13.70;;
5127;SDS011;2582;48.770;9.190;2023-04-06T07:17:14;18.57;;;15.20;;
5127;SDS011;2582;48.770;9.190;2023-04-06T07:19:40;21.23;;;18.03;;
5127;SDS011;2582;48.770;9.190;2023-04-06T07:22:05;16.67;;;14.90;;
5127;SDS011;2582;48.770;9.190;2023-04-06T07:24:31;19.57;;;14.17;;
5127;SDS011;2582;48.770;9.190;2023-04-06T07:26:58;14.80;;;13.30;;
5127;SDS011;2582;48.770;9.190;2023-04-06T07:29:25;15.37;;;13.90;;
5127;SDS011;2582;48.770;9.190;2023-04-06T07:31:52;16.90;;;15.10;;
5127;SDS011;2582;48.770;9.190;2023-04-06T07:34:18;15.90;;;14.23;;
5127;SDS011;2582;48.770;9.190;2023-04-06T07:36:43;16.33;;;14.13;;
5127;SDS011;2582;48.770;9.190;2023-04-06T07:39:09;18.67;;;14.77;;
5127;SDS011;2582;48.770;9.190;2023-04-06T07:41:35;18.20;;;15.70;;
5127;SDS011;2582;48.770;9.190;2023-04-06T07:44:01;16.50;;;14.70;;
5127;SDS011;2582;48.770;9.190;2023-04-06T07:46:27;20.13;;;15.57;;
5127;SDS011;2582;48.770;9.190;2023-04-06T07:48:52;14.83;;;12.50;;
5127;SDS011;2582;48.770;9.190;2023-04-06T07:51:18;15.07;;;13.57;;
5127;SDS011;2582;48.770;9.190;2023-04-06T07:53:44;15.13;;;13.63;;
5127;SDS011;2582;48.770;9.190;2023-04-06T07:56:10;18.60;;;15.00;;
5127;SDS011;2582;48.770;9.190;2023-04-06T07:58:37;17.10;;;15.30;;
5127;SDS011;2582;48.770;9.190;2023-04-06T08:01:02;16.00;;;14.30;;
5127;SDS011;2582;48.770;9.190;2023-04-06T08:03:28;21.77;;;16.07;;
5127;SDS011;2582;48.770;9.190;2023-04-06T08:05:54;16.27;;;14.67;;
5127;SDS011;2582;48.770;9.190;2023-04-06T08:08:20;17.20;;;14.20;;
5127;SDS011;2582;48.770;9.190;2023-04-06T08:10:46;18.43;;;16.40;;
5127;SDS011;2582;48.770;9.190;2023-04-06T08:13:13;17.97;;;14.47;;
5127;SDS011;2582;48.770;9.190;2023-04-06T08:15:39;17.20;;;14.60;;
5127;SDS011;2582;48.770;9.190;2023-04-06T08:18:05;15.47;;;13.80;;
5127;SDS011;2582;48.770;9.190;2023-04-06T08:20:30;16.37;;;14.30;;
5127;SDS011;2582;48.770;9.190;2023-04-06T08:22:56;15.47;;;13.87;;
5127;SDS011;2582;48.770;9.190;2023-04-06T08:25:22;18.07;;;13.40;;
5127;SDS011;2582;48.770;9.190;2023-04-06T08:27:47;16.87;;;15.17;;
5127;SDS011;2582;48.770;9.190;2023-04-06T08:30:13;17.13;;;14.70;;
5127;SDS011;2582;48.770;9.190;2023-04-06T08:32:40;18.50;;;14.60;;
5127;SDS011;2582;48.770;9.190;2023-04-06T08:35:07;17.10;;;14.50;;
5127;SDS011;2582;48.770;9.190;2023-04-06T08:37:33;17.13;;;14.40;;
5127;SDS011;2582;48.770;9.190;2023-04-06T08:39:58;14.90;;;13.40;;
5127;SDS011;2582;48.770;9.190;2023-04-06T08:42:25;17.77;;;15.23;;
5127;SDS011;2582;48.770;9.190;2023-04-06T08:44:53;18.10;;;14.43;;
5127;SDS011;2582;48.770;9.190;2023-04-06T08:47:20;15.40;;;13.80;;
5127;SDS011;2582;48.770;9.190;2023-04-06T08:49:46;14.50;;;13.10;;
5127;SDS011;2582;48.770;9.190;2023-04-06T08:52:12;16.33;;;14.60;;
5127;SDS011;2582;48.770;9.190;2023-04-06T08:54:40;14.80;;;13.00;;
5127;SDS011;2582;48.770;9.190;2023-04-06T08:57:06;15.87;;;14.20;;
5127;SDS011;2582;48.770;9.190;2023-04-06T08:59:33;13.53;;;11.87;;
5127;SDS011;2582;48.770;9.190;2023-04-06T09:01:59;13.00;;;11.17;;
5127;SDS011;2582;48.770;9.190;2023-04-06T09:04:28;12.37;;;11.10;;
5127;SDS011;2582;48.770;9.190;2023-04-06T09:06:53;15.30;;;13.10;;
5127;SDS011;2582;48.770;9.190;2023-04-06T09:09:19;15.87;;;14.17;;
5127;SDS011;2582;48.770;9.190;2023-04-06T09:11:46;14.13;;;12.63;;
5127;SDS011;2582;48.770;9.190;2023-04-06T09:14:16;13.03;;;11.70;;
5127;SDS011;2582;48.770;9.190;2023-04-06T09:16:43;15.20;;;13.70;;
5127;SDS011;2582;48.770;9.190;2023-04-06T09:19:10;15.57;;;13.43;;
5127;SDS011;2582;48.770;9.190;2023-04-06T09:21:37;18.30;;;12.93;;
5127;SDS011;2582;48.770;9.190;2023-04-06T09:24:05;14.07;;;12.23;;
5127;SDS011;2582;48.770;9.190;2023-04-06T09:26:32;15.13;;;12.90;;
5127;SDS011;2582;48.770;9.190;2023-04-06T09:29:08;12.23;;;10.90;;
5127;SDS011;2582;48.770;9.190;2023-04-06T09:31:34;9.07;;;8.10;;
5127;SDS011;2582;48.770;9.190;2023-04-06T09:34:00;13.67;;;9.03;;
5127;SDS011;2582;48.770;9.190;2023-04-06T09:36:30;14.37;;;10.70;;
5127;SDS011;2582;48.770;9.190;2023-04-06T09:38:58;10.73;;;9.60;;
5127;SDS011;2582;48.770;9.190;2023-04-06T09:41:29;11.30;;;10.40;;
5127;SDS011;2582;48.770;9.190;2023-04-06T09:44:03;11.83;;;10.57;;
5127;SDS011;2582;48.770;9.190;2023-04-06T09:46:31;11.93;;;9.77;;
5127;SDS011;2582;48.770;9.190;2023-04-06T09:48:59;10.93;;;9.80;;
5127;SDS011;2582;48.770;9.190;2023-04-06T09:51:27;11.80;;;10.60;;
5127;SDS011;2582;48.770;9.190;2023-04-06T09:54:00;12.73;;;11.47;;
5127;SDS011;2582;48.770;9.190;2023-04-06T09:56:30;11.80;;;10.50;;
5127;SDS011;2582;48.770;9.190;2023-04-06T09:59:02;11.80;;;9.80;;
5127;SDS011;2582;48.770;9.190;2023-04-06T10:01:33;12.47;;;10.73;;
5127;SDS011;2582;48.770;9.190;2023-04-06T10:06:51;11.63;;;9.47;;
5127;SDS011;2582;48.770;9.190;2023-04-06T10:09:17;12.13;;;8.90;;
5127;SDS011;2582;48.770;9.190;2023-04-06T10:11:48;10.27;;;9.27;;
5127;SDS011;2582;48.770;9.190;2023-04-06T10:14:15;9.70;;;8.80;;
5127;SDS011;2582;48.770;9.190;2023-04-06T10:16:42;10.90;;;9.90;;
5127;SDS011;2582;48.770;9.190;2023-04-06T10:19:16;10.73;;;9.63;;
5127;SDS011;2582;48.770;9.190;2023-04-06T10:21:47;12.10;;;10.47;;
5127;SDS011;2582;48.770;9.190;2023-04-06T10:24:15;10.60;;;9.50;;
5127;SDS011;2582;48.770;9.190;2023-04-06T10:26:42;10.37;;;9.27;;
5127;SDS011;2582;48.770;9.190;2023-04-06T10:29:07;10.30;;;9.30;;
5127;SDS011;2582;48.770;9.190;2023-04-06T10:31:39;10.93;;;8.90;;
5127;SDS011;2582;48.770;9.190;2023-04-06T10:34:07;9.60;;;8.70;;
5127;SDS011;2582;48.770;9.190;2023-04-06T10:36:33;9.80;;;8.80;;
5127;SDS011;2582;48.770;9.190;2023-04-06T10:39:00;9.83;;;8.83;;
5127;SDS011;2582;48.770;9.190;2023-04-06T10:41:44;11.67;;;10.03;;
5127;SDS011;2582;48.770;9.190;2023-04-06T10:44:22;12.40;;;9.10;;
5127;SDS011;2582;48.770;9.190;2023-04-06T10:47:07;10.10;;;9.10;;
5127;SDS011;2582;48.770;9.190;2023-04-06T10:49:42;14.70;;;9.70;;
5127;SDS011;2582;48.770;9.190;2023-04-06T10:52:08;10.53;;;9.43;;
5127;SDS011;2582;48.770;9.190;2023-04-06T10:54:34;9.17;;;8.37;;
5127;SDS011;2582;48.770;9.190;2023-04-06T10:57:09;10.37;;;9.30;;
5127;SDS011;2582;48.770;9.190;2023-04-06T10:59:35;9.20;;;8.30;;
5127;SDS011;2582;48.770;9.190;2023-04-06T11:02:00;10.40;;;8.53;;
5127;SDS011;2582;48.770;9.190;2023-04-06T11:04:27;11.37;;;10.17;;
5127;SDS011;2582;48.770;9.190;2023-04-06T11:06:53;9.53;;;7.77;;
5127;SDS011;2582;48.770;9.190;2023-04-06T11:09:26;9.30;;;8.17;;
5127;SDS011;2582;48.770;9.190;2023-04-06T11:11:54;9.07;;;8.17;;
5127;SDS011;2582;48.770;9.190;2023-04-06T11:14:20;10.50;;;9.40;;
5127;SDS011;2582;48.770;9.190;2023-04-06T11:16:47;9.80;;;8.80;;
5127;SDS011;2582;48.770;9.190;2023-04-06T11:19:15;10.40;;;9.30;;
5127;SDS011;2582;48.770;9.190;2023-04-06T11:21:43;9.60;;;8.60;;
5127;SDS011;2582;48.770;9.190;2023-04-06T11:24:22;9.37;;;8.47;;
5127;SDS011;2582;48.770;9.190;2023-04-06T11:26:49;8.30;;;7.47;;
5127;SDS011;2582;48.770;9.190;2023-04-06T11:29:23;8.47;;;7.70;;
5127;SDS011;2582;48.770;9.190;2023-04-06T11:32:00;8.60;;;7.80;;
5127;SDS011;2582;48.770;9.190;2023-04-06T11:34:28;10.70;;;8.37;;
5127;SDS011;2582;48.770;9.190;2023-04-06T11:36:56;8.97;;;8.17;;
5127;SDS011;2582;48.770;9.190;2023-04-06T11:39:23;8.80;;;8.00;;
5127;SDS011;2582;48.770;9.190;2023-04-06T11:41:51;8.40;;;7.70;;
5127;SDS011;2582;48.770;9.190;2023-04-06T11:44:31;8.50;;;7.70;;
5127;SDS011;2582;48.770;9.190;2023-04-06T11:46:58;8.73;;;7.93;;
5127;SDS011;2582;48.770;9.190;2023-04-06T11:49:29;7.70;;;7.00;;
5127;SDS011;2582;48.770;9.190;2023-04-06T11:51:56;9.60;;;8.60;;
5127;SDS011;2582;48.770;9.190;2023-04-06T11:54:32;8.20;;;7.40;;
5127;SDS011;2582;48.770;9.190;2023-04-06T11:56:57;8.80;;;7.90;;
5127;SDS011;2582;48.770;9.190;2023-04-06T11:59:23;8.97;;;8.03;;
5127;SDS011;2582;48.770;9.190;2023-04-06T12:01:49;8.60;;;7.70;;
5127;SDS011;2582;48.770;9.190;2023-04-06T12:04:14;9.03;;;8.23;;
5127;SDS011;2582;48.770;9.190;2023-04-06T12:06:40;8.70;;;7.97;;
5127;SDS011;2582;48.770;9.190;2023-04-06T12:09:06;8.10;;;7.33;;
5127;SDS011;2582;48.770;9.190;2023-04-06T12:11:31;8.77;;;7.97;;
5127;SDS011;2582;48.770;9.190;2023-04-06T12:13:57;8.53;;;7.73;;
5127;SDS011;2582;48.770;9.190;2023-04-06T12:16:24;9.00;;;8.07;;
5127;SDS011;2582;48.770;9.190;2023-04-06T12:18:50;9.23;;;8.43;;
5127;SDS011;2582;48.770;9.190;2023-04-06T12:21:16;9.40;;;8.60;;
5127;SDS011;2582;48.770;9.190;2023-04-06T12:23:42;8.10;;;7.30;;
5127;SDS011;2582;48.770;9.190;2023-04-06T12:26:07;7.73;;;6.63;;
5127;SDS011;2582;48.770;9.190;2023-04-06T12:28:33;8.63;;;7.73;;
5127;SDS011;2582;48.770;9.190;2023-04-06T12:30:58;10.10;;;7.50;;
5127;SDS011;2582;48.770;9.190;2023-04-06T12:33:24;8.47;;;7.67;;
5127;SDS011;2582;48.770;9.190;2023-04-06T12:35:50;7.87;;;7.17;;
5127;SDS011;2582;48.770;9.190;2023-04-06T12:38:16;8.40;;;7.50;;
5127;SDS011;2582;48.770;9.190;2023-04-06T12:40:42;8.50;;;7.73;;
5127;SDS011;2582;48.770;9.190;2023-04-06T12:43:07;8.27;;;6.90;;
5127;SDS011;2582;48.770;9.190;2023-04-06T12:45:33;7.00;;;6.40;;
5127;SDS011;2582;48.770;9.190;2023-04-06T12:47:59;6.80;;;6.20;;
5127;SDS011;2582;48.770;9.190;2023-04-06T12:50:25;7.70;;;6.87;;
5127;SDS011;2582;48.770;9.190;2023-04-06T12:52:51;7.90;;;7.20;;
5127;SDS011;2582;48.770;9.190;2023-04-06T12:55:17;7.60;;;6.53;;
5127;SDS011;2582;48.770;9.190;2023-04-06T12:57:42;7.97;;;7.27;;
5127;SDS011;2582;48.770;9.190;2023-04-06T13:00:10;7.80;;;7.07;;
5127;SDS011;2582;48.770;9.190;2023-04-06T13:02:36;8.97;;;7.77;;
5127;SDS011;2582;48.770;9.190;2023-04-06T13:05:02;10.90;;;8.43;;
5127;SDS011;2582;48.770;9.190;2023-04-06T13:07:27;6.77;;;6.17;;
5127;SDS011;2582;48.770;9.190;2023-04-06T13:09:53;7.07;;;6.27;;
5127;SDS011;2582;48.770;9.190;2023-04-06T13:12:19;8.47;;;7.60;;
5127;SDS011;2582;48.770;9.190;2023-04-06T13:14:45;7.60;;;6.80;;
5127;SDS011;2582;48.770;9.190;2023-04-06T13:17:15;8.77;;;6.13;;
5127;SDS011;2582;48.770;9.190;2023-04-06T13:19:42;8.03;;;7.20;;
5127;SDS011;2582;48.770;9.190;2023-04-06T13:22:08;8.00;;;7.20;;
5127;SDS011;2582;48.770;9.190;2023-04-06T13:24:34;7.53;;;6.83;;
5127;SDS011;2582;48.770;9.190;2023-04-06T13:27:00;7.00;;;6.40;;
5127;SDS011;2582;48.770;9.190;2023-04-06T13:29:25;8.17;;;7.37;;
5127;SDS011;2582;48.770;9.190;2023-04-06T13:31:52;9.70;;;7.20;;
5127;SDS011;2582;48.770;9.190;2023-04-06T13:34:18;8.50;;;7.23;;
5127;SDS011;2582;48.770;9.190;2023-04-06T13:36:43;8.00;;;7.20;;
5127;SDS011;2582;48.770;9.190;2023-04-06T13:39:09;8.27;;;7.40;;
5127;SDS011;2582;48.770;9.190;2023-04-06T13:41:34;7.33;;;6.50;;
5127;SDS011;2582;48.770;9.190;2023-04-06T13:44:00;7.97;;;7.20;;
5127;SDS011;2582;48.770;9.190;2023-04-06T13:46:26;7.80;;;7.00;;
5127;SDS011;2582;48.770;9.190;2023-04-06T13:48:52;8.73;;;7.67;;
5127;SDS011;2582;48.770;9.190;2023-04-06T13:51:18;7.67;;;6.87;;
5127;SDS011;2582;48.770;9.190;2023-04-06T13:53:44;11.00;;;6.47;;
5127;SDS011;2582;48.770;9.190;2023-04-06T13:56:10;8.37;;;7.63;;
5127;SDS011;2582;48.770;9.190;2023-04-06T13:58:35;8.30;;;7.40;;
5127;SDS011;2582;48.770;9.190;2023-04-06T14:01:05;8.77;;;7.50;;
5127;SDS011;2582;48.770;9.190;2023-04-06T14:03:31;8.13;;;6.90;;
5127;SDS011;2582;48.770;9.190;2023-04-06T14:05:57;7.70;;;6.90;;
5127;SDS011;2582;48.770;9.190;2023-04-06T14:08:23;7.87;;;7.13;;
5127;SDS011;2582;48.770;9.190;2023-04-06T14:10:48;9.80;;;7.80;;
5127;SDS011;2582;48.770;9.190;2023-04-06T14:13:14;8.93;;;8.03;;
5127;SDS011;2582;48.770;9.190;2023-04-06T14:15:40;7.83;;;7.03;;
5127;SDS011;2582;48.770;9.190;2023-04-06T14:18:06;8.43;;;7.50;;
5127;SDS011;2582;48.770;9.190;2023-04-06T14:20:32;10.63;;;7.20;;
5127;SDS011;2582;48.770;9.190;2023-04-06T14:22:59;8.07;;;7.10;;
5127;SDS011;2582;48.770;9.190;2023-04-06T14:25:25;9.10;;;7.03;;
5127;SDS011;2582;48.770;9.190;2023-04-06T14:27:51;9.60;;;8.17;;
5127;SDS011;2582;48.770;9.190;2023-04-06T14:30:16;7.50;;;6.70;;
5127;SDS011;2582;48.770;9.190;2023-04-06T14:32:42;8.50;;;6.93;;
5127;SDS011;2582;48.770;9.190;2023-04-06T14:35:08;8.20;;;7.43;;
5127;SDS011;2582;48.770;9.190;2023-04-06T14:37:34;7.80;;;7.00;;
5127;SDS011;2582;48.770;9.190;2023-04-06T14:40:00;10.43;;;7.43;;
5127;SDS011;2582;48.770;9.190;2023-04-06T14:42:26;7.47;;;6.63;;
5127;SDS011;2582;48.770;9.190;2023-04-06T14:44:51;7.77;;;6.87;;
5127;SDS011;2582;48.770;9.190;2023-04-06T14:47:18;7.90;;;6.77;;
5127;SDS011;2582;48.770;9.190;2023-04-06T14:49:46;8.13;;;7.20;;
5127;SDS011;2582;48.770;9.190;2023-04-06T14:52:12;8.27;;;7.47;;
5127;SDS011;2582;48.770;9.190;2023-04-06T14:54:38;8.47;;;7.67;;
5127;SDS011;2582;48.770;9.190;2023-04-06T14:57:03;9.13;;;6.60;;